Time;durP1;ratioP1;P1;durP2;ratioP2;P2;SDS_P1;SDS_P2;PMS_P1;PMS_P2;Temp;Humidity;BMP_temperature;BMP_pressure;BME280_temperature;BME280_humidity;BME280_pressure;Samples;Min_cycle;Max_cycle;Signal;HPM_P1;HPM_P2
2021/11/24 00:00:37;;;;;;;6.70;4.87;;;10.60;1.00;;;;;;4972196;28;20677;-69
2021/11/24 00:03:06;;;;;;;9.07;5.73;;;10.60;1.00;;;;;;4972372;28;20224;-68
2021/11/24 00:05:33;;;;;;;9.30;4.77;;;10.60;1.00;;;;;;4971750;28;20752;-69
2021/11/24 00:08:00;;;;;;;6.43;5.27;;;10.60;1.00;;;;;;4971134;28;21177;-68
2021/11/24 00:10:29;;;;;;;5.27;4.67;;;10.50;1.00;;;;;;4971412;28;20209;-68
2021/11/24 00:12:57;;;;;;;6.20;4.37;;;10.50;1.00;;;;;;4971594;28;20280;-71
2021/11/24 00:15:24;;;;;;;6.00;4.83;;;10.60;1.00;;;;;;4971806;28;20210;-69
2021/11/24 00:17:51;;;;;;;5.03;3.87;;;10.60;1.00;;;;;;4972187;28;20210;-72
2021/11/24 00:20:19;;;;;;;5.37;3.63;;;10.60;1.00;;;;;;4958413;28;20263;-68
2021/11/24 00:22:46;;;;;;;4.67;3.80;;;10.70;1.00;;;;;;4971701;28;20205;-69
2021/11/24 00:25:14;;;;;;;6.37;5.73;;;10.70;1.00;;;;;;4971367;28;20210;-69
2021/11/24 00:27:41;;;;;;;6.40;4.53;;;10.70;1.00;;;;;;4971827;28;20342;-69
2021/11/24 00:30:09;;;;;;;7.60;4.97;;;10.60;1.00;;;;;;4971824;28;20213;-69
2021/11/24 00:46:05;;;;;;;6.23;3.17;;;10.60;1.00;;;;;;4971665;28;20212;-69
2021/11/24 00:48:32;;;;;;;5.47;3.40;;;10.70;1.00;;;;;;4971152;28;20268;-74
2021/11/24 00:50:59;;;;;;;8.10;3.67;;;10.60;1.00;;;;;;4971815;28;20268;-70
2021/11/24 00:53:26;;;;;;;5.70;3.57;;;10.60;1.00;;;;;;4983517;28;20786;-70
2021/11/24 01:06:33;;;;;;;4.83;3.80;;;10.60;1.00;;;;;;4971504;28;20619;-70
2021/11/24 01:09:00;;;;;;;7.50;4.63;;;10.60;1.00;;;;;;4971059;28;20775;-70
2021/11/24 01:11:27;;;;;;;6.63;4.10;;;10.50;1.00;;;;;;4971026;28;20205;-70
2021/11/24 01:13:54;;;;;;;8.27;4.43;;;10.50;1.00;;;;;;4971400;28;20261;-75
2021/11/24 01:16:21;;;;;;;5.10;3.80;;;10.60;1.00;;;;;;4970864;28;20631;-71
2021/11/24 01:18:48;;;;;;;5.17;3.70;;;10.50;1.00;;;;;;4972036;28;20217;-71
2021/11/24 01:21:15;;;;;;;5.63;4.63;;;10.50;1.00;;;;;;4974728;28;20209;-70
2021/11/24 01:23:43;;;;;;;6.67;4.40;;;10.50;1.00;;;;;;4975302;28;20209;-70
2021/11/24 01:26:10;;;;;;;7.47;4.83;;;10.50;1.00;;;;;;4975309;28;20216;-71
2021/11/24 01:31:59;;;;;;;4.07;3.70;;;10.60;1.00;;;;;;4974747;28;20251;-72
2021/11/24 01:34:26;;;;;;;6.50;4.30;;;10.60;1.00;;;;;;4974469;28;20771;-72
2021/11/24 01:36:53;;;;;;;6.47;4.40;;;10.60;1.00;;;;;;4974334;28;20594;-72
2021/11/24 01:39:22;;;;;;;4.80;3.73;;;10.60;1.00;;;;;;4974706;28;20260;-68
2021/11/24 01:41:49;;;;;;;5.83;3.60;;;10.60;1.00;;;;;;4974787;28;20213;-68
2021/11/24 01:44:21;;;;;;;5.30;4.00;;;10.60;1.00;;;;;;4974627;28;20342;-68
2021/11/24 01:46:53;;;;;;;4.50;3.97;;;10.60;1.00;;;;;;4974584;28;20210;-68
2021/11/24 01:49:20;;;;;;;3.50;3.00;;;10.60;1.00;;;;;;4974365;28;20210;-69
2021/11/24 01:51:47;;;;;;;4.83;4.43;;;10.60;1.00;;;;;;4974658;28;20217;-68
2021/11/24 01:54:15;;;;;;;5.13;3.43;;;10.60;1.00;;;;;;4973821;28;20229;-68
2021/11/24 01:56:44;;;;;;;3.90;2.93;;;10.60;1.00;;;;;;4974570;28;20210;-69
2021/11/24 01:59:13;;;;;;;4.63;3.53;;;10.60;1.00;;;;;;4974520;28;20202;-68
2021/11/24 02:01:41;;;;;;;3.90;2.93;;;10.60;1.00;;;;;;4974814;28;20205;-68
2021/11/24 02:04:09;;;;;;;4.30;3.40;;;10.60;1.00;;;;;;4974363;28;20217;-69
2021/11/24 02:06:36;;;;;;;4.73;3.10;;;10.70;1.00;;;;;;4973902;28;20244;-69
2021/11/24 02:09:03;;;;;;;5.53;2.70;;;10.70;1.00;;;;;;4973971;28;20821;-68
2021/11/24 02:11:31;;;;;;;4.37;2.90;;;10.70;1.00;;;;;;4974020;28;20655;-69
2021/11/24 02:13:59;;;;;;;5.23;2.60;;;10.80;1.00;;;;;;4974177;28;20784;-68
2021/11/24 02:16:26;;;;;;;2.70;2.20;;;10.80;1.00;;;;;;4973730;28;20260;-68
2021/11/24 02:18:53;;;;;;;3.53;2.20;;;10.80;1.00;;;;;;4974289;28;20205;-74
2021/11/24 02:21:21;;;;;;;3.80;2.00;;;10.80;1.00;;;;;;4973558;28;20260;-69
2021/11/24 02:23:48;;;;;;;4.53;1.67;;;10.80;1.00;;;;;;4974030;28;20214;-68
2021/11/24 02:26:17;;;;;;;5.43;1.63;;;10.90;1.00;;;;;;4973604;28;20281;-71
2021/11/24 02:28:44;;;;;;;3.27;1.97;;;10.90;1.00;;;;;;4973658;28;20677;-71
2021/11/24 02:31:19;;;;;;;7.53;2.20;;;10.90;1.00;;;;;;4973136;28;20268;-69
2021/11/24 02:33:50;;;;;;;2.47;1.67;;;10.90;1.00;;;;;;4973738;28;20319;-70
2021/11/24 02:36:17;;;;;;;3.03;1.90;;;10.90;1.00;;;;;;4973191;28;20210;-70
2021/11/24 02:38:46;;;;;;;4.50;1.80;;;11.00;1.00;;;;;;4973492;28;20205;-70
2021/11/24 02:41:13;;;;;;;4.23;2.37;;;11.10;1.00;;;;;;4973610;28;20209;-70
2021/11/24 02:43:40;;;;;;;2.07;1.13;;;10.90;1.00;;;;;;4973965;28;20264;-71
2021/11/24 02:46:07;;;;;;;1.40;1.17;;;10.80;1.00;;;;;;4973891;28;20256;-70
2021/11/24 02:48:34;;;;;;;2.47;1.13;;;10.70;1.00;;;;;;4972763;28;20218;-73
2021/11/24 02:51:01;;;;;;;3.80;1.23;;;10.60;1.00;;;;;;4973661;28;20210;-70
2021/11/24 02:53:29;;;;;;;2.77;1.67;;;10.70;1.00;;;;;;4973067;28;20677;-70
2021/11/24 02:55:58;;;;;;;1.37;1.20;;;10.70;1.00;;;;;;4973400;28;20213;-72
2021/11/24 02:58:25;;;;;;;1.77;1.57;;;10.70;1.00;;;;;;4972961;28;20209;-71
2021/11/24 03:00:53;;;;;;;3.20;0.90;;;10.90;1.00;;;;;;4973315;28;20268;-72
2021/11/24 03:03:20;;;;;;;2.60;1.07;;;10.80;1.00;;;;;;4972805;28;20213;-74
2021/11/24 03:05:48;;;;;;;1.40;0.60;;;10.80;1.00;;;;;;4972920;28;20218;-73
2021/11/24 03:08:15;;;;;;;2.13;1.00;;;10.90;1.00;;;;;;4973201;28;20253;-71
2021/11/24 03:10:42;;;;;;;1.07;0.90;;;11.00;1.00;;;;;;4973196;28;20653;-74
2021/11/24 03:13:10;;;;;;;2.07;0.80;;;10.90;1.00;;;;;;4973270;28;20682;-72
2021/11/24 03:15:37;;;;;;;1.90;1.00;;;10.80;1.00;;;;;;4973214;28;20233;-73
2021/11/24 03:18:04;;;;;;;3.37;0.70;;;10.80;1.00;;;;;;4972615;28;20623;-68
2021/11/24 03:20:31;;;;;;;2.03;1.13;;;10.90;1.00;;;;;;4972958;28;20271;-70
2021/11/24 03:22:59;;;;;;;6.67;5.33;;;10.70;1.00;;;;;;4973044;28;20210;-72
2021/11/24 03:25:27;;;;;;;9.60;6.43;;;10.30;1.00;;;;;;4972514;28;20213;-69
2021/11/24 03:27:54;;;;;;;13.23;7.37;;;9.90;1.00;;;;;;4972727;28;20264;-71
2021/11/24 03:30:24;;;;;;;13.87;8.07;;;9.70;1.00;;;;;;4972342;28;20205;-71
2021/11/24 03:32:53;;;;;;;11.47;8.13;;;9.50;1.00;;;;;;4972854;28;20209;-70
2021/11/24 03:35:22;;;;;;;11.87;8.33;;;9.40;1.00;;;;;;4972154;28;20237;-70
2021/11/24 03:37:51;;;;;;;14.70;7.97;;;9.30;1.00;;;;;;4972789;28;20277;-70
2021/11/24 03:40:20;;;;;;;11.67;7.97;;;9.20;1.00;;;;;;4965716;28;20212;-69
2021/11/24 03:42:47;;;;;;;13.37;9.03;;;9.20;1.00;;;;;;4972038;28;20222;-69
2021/11/24 03:45:15;;;;;;;9.27;7.43;;;9.10;1.00;;;;;;4972242;28;20685;-69
2021/11/24 03:47:44;;;;;;;13.07;7.07;;;9.10;1.00;;;;;;4972187;28;20217;-69
2021/11/24 03:50:12;;;;;;;13.97;8.07;;;9.00;1.00;;;;;;4972558;28;20685;-69
2021/11/24 03:52:39;;;;;;;13.40;8.37;;;9.00;1.00;;;;;;4972588;28;20202;-69
2021/11/24 03:55:08;;;;;;;10.40;6.97;;;9.00;1.00;;;;;;4972606;28;20690;-70
2021/11/24 03:57:35;;;;;;;12.90;8.20;;;8.90;99.90;;;;;;4972023;28;20217;-74
2021/11/24 04:00:02;;;;;;;13.43;7.93;;;8.70;99.90;;;;;;4972604;28;20223;-71
2021/11/24 04:02:29;;;;;;;11.80;8.77;;;8.80;1.00;;;;;;4971373;28;20265;-75
2021/11/24 04:04:57;;;;;;;18.17;8.07;;;8.80;1.00;;;;;;4972437;28;20247;-71
2021/11/24 04:07:24;;;;;;;16.20;8.30;;;8.80;1.00;;;;;;4971717;28;20213;-71
2021/11/24 04:09:51;;;;;;;14.47;8.03;;;8.80;1.00;;;;;;4972006;28;20260;-71
2021/11/24 04:12:18;;;;;;;13.93;7.90;;;8.80;1.00;;;;;;4971940;28;20288;-72
2021/11/24 04:14:45;;;;;;;13.10;7.63;;;8.80;1.00;;;;;;4971779;28;20236;-73
2021/11/24 04:17:13;;;;;;;10.97;7.93;;;8.80;1.00;;;;;;4971970;28;20638;-72
2021/11/24 04:19:40;;;;;;;15.63;8.40;;;8.80;99.90;;;;;;4971946;28;20210;-71
2021/11/24 04:22:09;;;;;;;13.23;8.17;;;8.80;1.00;;;;;;4972419;28;20272;-71
2021/11/24 04:24:37;;;;;;;12.67;8.17;;;8.80;99.90;;;;;;4971745;28;20220;-71
2021/11/24 04:27:04;;;;;;;12.37;8.83;;;8.80;1.00;;;;;;4972194;28;20283;-71
2021/11/24 04:29:31;;;;;;;8.77;7.33;;;8.80;1.00;;;;;;4971687;28;20217;-71
2021/11/24 04:31:58;;;;;;;15.80;8.30;;;8.80;1.00;;;;;;4971395;28;20215;-72
2021/11/24 04:34:25;;;;;;;12.73;7.60;;;8.70;99.90;;;;;;4971626;28;20645;-71
2021/11/24 04:36:52;;;;;;;11.93;6.90;;;8.60;1.00;;;;;;4971604;28;20205;-72
2021/11/24 04:39:21;;;;;;;12.40;7.63;;;8.60;1.00;;;;;;4971337;28;20260;-71
2021/11/24 04:41:48;;;;;;;10.43;7.27;;;8.70;1.00;;;;;;4971683;28;20219;-72
2021/11/24 04:44:15;;;;;;;11.97;7.20;;;8.80;1.00;;;;;;4971372;28;20209;-73
2021/11/24 04:46:42;;;;;;;13.37;8.17;;;8.70;1.00;;;;;;4971194;28;20212;-73
2021/11/24 04:49:09;;;;;;;14.23;8.70;;;8.80;1.00;;;;;;4971972;28;20209;-72
2021/11/24 04:51:37;;;;;;;13.83;7.43;;;8.80;1.00;;;;;;4971807;28;20463;-73
2021/11/24 04:54:04;;;;;;;14.50;8.40;;;8.70;1.00;;;;;;4972310;28;20206;-72
2021/11/24 04:56:33;;;;;;;14.73;8.73;;;8.60;1.00;;;;;;4975228;28;20639;-72
2021/11/24 04:59:02;;;;;;;14.07;7.53;;;8.60;1.00;;;;;;4975386;28;20299;-70
2021/11/24 05:01:29;;;;;;;11.73;8.17;;;8.60;1.00;;;;;;4975160;28;20295;-71
2021/11/24 05:03:57;;;;;;;15.67;7.90;;;8.70;1.00;;;;;;4975143;28;20650;-70
2021/11/24 05:06:24;;;;;;;16.10;7.37;;;8.70;1.00;;;;;;4975438;28;20209;-70
2021/11/24 05:08:51;;;;;;;13.03;8.87;;;8.70;1.00;;;;;;4975515;28;20213;-70
2021/11/24 05:11:19;;;;;;;13.47;7.97;;;8.80;1.00;;;;;;4974980;28;20211;-70
2021/11/24 05:13:52;;;;;;;12.07;7.80;;;8.80;1.00;;;;;;4975143;28;20272;-71
2021/11/24 05:16:20;;;;;;;11.23;7.80;;;8.80;1.00;;;;;;4974671;28;20321;-70
2021/11/24 05:18:48;;;;;;;13.13;7.90;;;8.70;1.00;;;;;;4975173;28;20213;-71
2021/11/24 05:21:21;;;;;;;14.53;8.13;;;8.60;1.00;;;;;;4974469;28;20692;-71
2021/11/24 05:23:48;;;;;;;12.37;8.30;;;8.70;1.00;;;;;;4975498;28;20617;-71
2021/11/24 05:26:15;;;;;;;13.03;8.60;;;8.70;1.00;;;;;;4974742;28;20648;-71
2021/11/24 05:28:42;;;;;;;14.53;9.30;;;8.70;1.00;;;;;;4974827;28;20748;-71
2021/11/24 05:31:11;;;;;;;14.43;8.53;;;8.70;1.00;;;;;;4974932;28;20681;-71
2021/11/24 05:33:38;;;;;;;17.77;8.57;;;8.50;1.00;;;;;;4974205;28;20213;-72
2021/11/24 05:36:06;;;;;;;12.47;8.33;;;8.40;99.90;;;;;;4975245;28;20268;-69
2021/11/24 05:38:33;;;;;;;15.27;7.13;;;8.30;1.00;;;;;;4974518;28;20265;-69
2021/11/24 05:41:00;;;;;;;16.60;8.13;;;8.30;1.00;;;;;;4974410;28;20206;-71
2021/11/24 05:43:29;;;;;;;12.73;8.33;;;8.40;1.00;;;;;;4974015;28;20205;-72
2021/11/24 05:48:46;;;;;;;11.10;8.30;;;8.50;1.00;;;;;;4965593;28;20220;-72
2021/11/24 05:51:14;;;;;;;14.23;7.13;;;8.60;1.00;;;;;;4974327;28;20260;-72
2021/11/24 05:53:42;;;;;;;10.33;6.63;;;8.60;1.00;;;;;;4974168;28;20256;-74
2021/11/24 05:56:09;;;;;;;10.83;6.63;;;8.50;99.90;;;;;;4974241;28;20311;-69
2021/11/24 05:58:36;;;;;;;8.93;5.67;;;8.40;99.90;;;;;;4973895;28;20665;-69
2021/11/24 06:01:03;;;;;;;7.77;6.00;;;8.40;1.00;;;;;;4974271;28;20268;-70
2021/11/24 06:03:30;;;;;;;10.87;6.50;;;8.40;1.00;;;;;;4973740;28;20217;-69
2021/11/24 06:05:59;;;;;;;10.00;6.70;;;8.60;1.00;;;;;;4974169;28;20213;-70
2021/11/24 06:08:26;;;;;;;9.37;5.80;;;8.70;1.00;;;;;;4973802;28;20241;-69
2021/11/24 06:10:53;;;;;;;8.67;5.77;;;8.70;99.90;;;;;;4973607;28;20213;-69
2021/11/24 06:13:20;;;;;;;8.00;5.13;;;8.60;99.90;;;;;;4973776;28;20238;-69
2021/11/24 06:15:47;;;;;;;7.43;5.37;;;8.50;99.90;;;;;;4974119;28;20421;-70
2021/11/24 06:18:14;;;;;;;8.63;6.23;;;8.50;99.90;;;;;;4974198;28;20205;-75
2021/11/24 06:20:41;;;;;;;12.23;7.80;;;8.50;99.90;;;;;;4973894;28;20268;-70
2021/11/24 06:23:11;;;;;;;8.03;5.87;;;8.50;99.90;;;;;;4974323;28;20217;-70
2021/11/24 06:25:38;;;;;;;9.13;6.27;;;8.60;99.90;;;;;;4973692;28;20677;-71
2021/11/24 06:28:06;;;;;;;9.07;5.97;;;8.60;99.90;;;;;;4973718;28;20265;-75
2021/11/24 06:30:34;;;;;;;9.20;5.93;;;8.70;99.90;;;;;;4972392;28;20276;-75
2021/11/24 06:33:01;;;;;;;6.37;5.37;;;8.70;99.90;;;;;;4973258;28;20209;-70
2021/11/24 06:35:28;;;;;;;9.37;5.63;;;8.80;99.90;;;;;;4973679;28;20241;-71
2021/11/24 06:37:55;;;;;;;9.03;5.87;;;8.80;99.90;;;;;;4973733;28;20276;-70
2021/11/24 06:40:23;;;;;;;9.07;5.97;;;8.80;99.90;;;;;;4973178;28;20213;-71
2021/11/24 06:42:50;;;;;;;10.30;6.47;;;8.80;99.90;;;;;;4973850;28;20632;-70
2021/11/24 06:45:18;;;;;;;8.53;6.20;;;8.80;99.90;;;;;;4960359;28;20260;-71
2021/11/24 06:47:45;;;;;;;9.83;6.23;;;8.80;99.90;;;;;;4973568;28;20214;-71
2021/11/24 06:50:13;;;;;;;8.90;5.37;;;8.80;99.90;;;;;;4973476;28;20666;-70
2021/11/24 06:52:40;;;;;;;5.87;5.27;;;8.70;99.90;;;;;;4973690;28;20205;-72
2021/11/24 06:55:09;;;;;;;7.13;5.37;;;8.80;99.90;;;;;;4973555;28;20597;-75
2021/11/24 06:57:38;;;;;;;7.00;4.77;;;8.80;99.90;;;;;;4973031;28;20578;-73
2021/11/24 07:00:06;;;;;;;7.67;4.43;;;8.70;99.90;;;;;;4973357;28;20241;-72
2021/11/24 07:02:33;;;;;;;5.33;4.40;;;8.80;99.90;;;;;;4972047;28;20213;-72
2021/11/24 07:05:00;;;;;;;5.43;4.83;;;8.70;99.90;;;;;;4971010;28;20339;-73
2021/11/24 07:07:27;;;;;;;4.67;3.73;;;8.50;99.90;;;;;;4972262;28;20218;-72
2021/11/24 07:09:54;;;;;;;7.27;4.50;;;8.40;99.90;;;;;;4973269;28;20206;-68
2021/11/24 07:12:24;;;;;;;5.87;4.90;;;8.40;99.90;;;;;;4972517;28;20677;-68
2021/11/24 07:14:54;;;;;;;6.83;5.30;;;8.50;1.00;;;;;;4973208;28;20241;-68
2021/11/24 07:17:21;;;;;;;6.03;5.00;;;8.50;99.90;;;;;;4972366;28;20637;-68
2021/11/24 07:19:48;;;;;;;6.73;5.20;;;8.50;99.90;;;;;;4973273;28;20260;-68
2021/11/24 07:22:15;;;;;;;10.13;5.47;;;8.60;99.90;;;;;;4973153;28;20633;-68
2021/11/24 07:24:42;;;;;;;9.90;5.67;;;8.60;99.90;;;;;;4972615;28;20209;-73
2021/11/24 07:27:09;;;;;;;7.40;5.43;;;8.50;99.90;;;;;;4973026;28;20221;-71
2021/11/24 07:29:36;;;;;;;7.63;5.43;;;8.60;99.90;;;;;;4972504;28;20214;-72
2021/11/24 07:32:05;;;;;;;9.63;6.80;;;8.60;1.00;;;;;;4972694;28;20284;-72
2021/11/24 07:34:32;;;;;;;9.80;5.60;;;8.60;99.90;;;;;;4972121;28;20249;-71
2021/11/24 07:36:59;;;;;;;6.20;4.73;;;8.60;99.90;;;;;;4972434;28;20241;-72
2021/11/24 07:39:26;;;;;;;7.60;5.43;;;8.70;99.90;;;;;;4972395;28;20221;-72
2021/11/24 07:41:53;;;;;;;7.10;4.90;;;8.70;99.90;;;;;;4959373;28;20210;-71
2021/11/24 07:44:20;;;;;;;7.53;5.17;;;8.80;99.90;;;;;;4972351;28;20266;-72
2021/11/24 07:46:47;;;;;;;6.97;4.90;;;8.80;99.90;;;;;;4971200;28;20690;-78
2021/11/24 07:49:15;;;;;;;6.77;4.37;;;8.80;99.90;;;;;;4971146;28;20616;-72
2021/11/24 07:51:42;;;;;;;5.43;4.10;;;8.80;99.90;;;;;;4972266;28;20268;-74
2021/11/24 07:54:09;;;;;;;7.83;4.83;;;8.90;99.90;;;;;;4972347;28;20638;-72
2021/11/24 07:56:36;;;;;;;7.40;5.40;;;8.80;99.90;;;;;;4971731;28;20233;-78
2021/11/24 07:59:03;;;;;;;6.50;4.77;;;8.90;99.90;;;;;;4971873;28;20740;-78
2021/11/24 08:01:30;;;;;;;10.70;5.90;;;8.90;99.90;;;;;;4970654;28;20206;-72
2021/11/24 08:03:58;;;;;;;10.53;5.37;;;8.80;99.90;;;;;;4971431;28;20280;-79
2021/11/24 08:06:27;;;;;;;10.90;4.87;;;8.90;99.90;;;;;;4971534;28;20304;-71
2021/11/24 08:08:54;;;;;;;8.60;5.40;;;9.00;99.90;;;;;;4972065;28;20211;-72
2021/11/24 08:11:21;;;;;;;8.43;6.70;;;9.00;99.90;;;;;;4971567;28;20216;-78
2021/11/24 08:13:48;;;;;;;5.80;5.20;;;8.90;99.90;;;;;;4971888;28;20213;-78
2021/11/24 08:16:15;;;;;;;5.37;4.70;;;8.90;99.90;;;;;;4971865;28;20237;-72
2021/11/24 08:18:42;;;;;;;6.13;4.83;;;9.00;99.90;;;;;;4971323;28;20209;-77
2021/11/24 08:21:09;;;;;;;7.27;5.03;;;9.00;99.90;;;;;;4971024;28;20237;-75
2021/11/24 08:23:37;;;;;;;7.30;5.63;;;9.00;99.90;;;;;;4971082;28;20646;-72
2021/11/24 08:26:04;;;;;;;6.60;5.37;;;8.90;99.90;;;;;;4971743;28;20213;-72
2021/11/24 08:28:31;;;;;;;8.47;4.80;;;9.00;99.90;;;;;;4970786;28;20209;-78
2021/11/24 08:30:58;;;;;;;8.67;5.83;;;9.10;99.90;;;;;;4971429;28;20201;-78
2021/11/24 08:33:25;;;;;;;9.73;5.27;;;9.10;99.90;;;;;;4970758;28;20208;-72
2021/11/24 08:35:52;;;;;;;9.77;5.10;;;9.10;99.90;;;;;;4970806;28;20280;-72
2021/11/24 08:38:19;;;;;;;9.73;6.27;;;9.10;99.90;;;;;;4971333;28;20267;-72
2021/11/24 08:40:48;;;;;;;7.80;5.27;;;9.10;99.90;;;;;;4971223;28;20260;-72
2021/11/24 08:43:15;;;;;;;7.77;5.07;;;9.10;99.90;;;;;;4971188;28;20674;-72
2021/11/24 08:45:42;;;;;;;7.67;5.80;;;9.10;99.90;;;;;;4971685;28;20256;-71
2021/11/24 08:48:09;;;;;;;9.37;5.90;;;9.10;99.90;;;;;;4971439;28;20280;-71
2021/11/24 08:50:37;;;;;;;7.00;5.03;;;9.10;99.90;;;;;;4970469;28;20283;-80
2021/11/24 08:53:04;;;;;;;7.93;5.73;;;9.20;99.90;;;;;;4970767;28;20256;-78
2021/11/24 08:55:31;;;;;;;9.30;6.43;;;9.10;99.90;;;;;;4970333;28;20291;-79
2021/11/24 08:58:00;;;;;;;6.67;5.20;;;9.10;99.90;;;;;;4971250;28;20622;-79
2021/11/24 09:00:27;;;;;;;5.60;4.60;;;9.10;99.90;;;;;;4970812;28;20832;-70
2021/11/24 09:02:54;;;;;;;6.27;4.83;;;9.00;99.90;;;;;;4971668;28;20209;-78
2021/11/24 09:05:22;;;;;;;6.53;5.70;;;9.00;99.90;;;;;;4970528;28;20264;-70
2021/11/24 09:07:49;;;;;;;7.30;4.83;;;9.00;99.90;;;;;;4971324;28;20216;-70
2021/11/24 09:10:17;;;;;;;6.43;5.63;;;9.00;99.90;;;;;;4971328;28;20256;-70
2021/11/24 09:12:45;;;;;;;7.33;6.03;;;9.10;99.90;;;;;;4971700;28;20269;-70
2021/11/24 09:15:14;;;;;;;7.13;5.33;;;9.10;99.90;;;;;;4971615;28;20221;-70
2021/11/24 09:17:41;;;;;;;6.27;5.27;;;9.10;99.90;;;;;;4971030;28;20216;-70
2021/11/24 09:20:09;;;;;;;10.90;5.27;;;9.10;99.90;;;;;;4971000;28;20217;-71
2021/11/24 09:22:38;;;;;;;8.40;5.97;;;9.10;99.90;;;;;;4970778;28;20643;-71
2021/11/24 09:25:07;;;;;;;6.20;5.53;;;9.00;99.90;;;;;;4971404;28;20214;-72
2021/11/24 09:27:44;;;;;;;7.90;6.80;;;9.10;99.90;;;;;;4969306;28;20252;-71
2021/11/24 09:30:11;;;;;;;8.90;6.50;;;9.00;99.90;;;;;;4971282;28;20209;-71
2021/11/24 09:32:41;;;;;;;8.73;6.13;;;9.10;99.90;;;;;;4970664;28;20268;-71
2021/11/24 09:35:09;;;;;;;7.40;6.50;;;9.00;99.90;;;;;;4970637;28;20210;-71
2021/11/24 09:37:37;;;;;;;54.40;29.73;;;9.10;99.90;;;;;;4970103;28;20717;-71
2021/11/24 09:40:06;;;;;;;31.47;24.87;;;9.10;99.90;;;;;;4971839;28;20264;-71
2021/11/24 09:42:37;;;;;;;13.40;11.93;;;9.10;99.90;;;;;;4974448;28;20205;-71
2021/11/24 09:45:05;;;;;;;8.40;6.83;;;9.20;99.90;;;;;;4973464;28;20198;-73
2021/11/24 09:47:34;;;;;;;8.83;6.20;;;9.20;99.90;;;;;;4973534;28;20305;-75
2021/11/24 09:50:04;;;;;;;7.87;6.20;;;9.20;99.90;;;;;;4971527;28;20670;-72
2021/11/24 09:52:34;;;;;;;7.23;6.53;;;9.20;99.90;;;;;;4973528;28;20289;-74
2021/11/24 09:55:01;;;;;;;7.13;5.67;;;9.10;99.90;;;;;;4974762;28;20599;-72
2021/11/24 09:57:29;;;;;;;8.53;6.40;;;9.10;99.90;;;;;;4974010;28;20300;-75
2021/11/24 09:59:56;;;;;;;7.13;6.00;;;9.20;99.90;;;;;;4974471;28;20213;-70
2021/11/24 10:02:23;;;;;;;7.23;5.93;;;9.20;99.90;;;;;;4973541;28;20222;-72
2021/11/24 10:04:51;;;;;;;6.40;4.90;;;9.10;99.90;;;;;;4970033;28;20214;-75
2021/11/24 10:07:20;;;;;;;7.00;5.23;;;9.10;99.90;;;;;;4973909;28;20260;-72
2021/11/24 10:09:47;;;;;;;12.70;7.33;;;9.10;99.90;;;;;;4974522;28;20213;-71
2021/11/24 10:12:15;;;;;;;9.63;6.53;;;9.10;99.90;;;;;;4974458;28;20264;-72
2021/11/24 10:14:44;;;;;;;7.23;5.77;;;9.10;99.90;;;;;;4973751;28;20256;-73
2021/11/24 10:17:14;;;;;;;6.83;6.13;;;9.10;99.90;;;;;;4974003;28;20288;-71
2021/11/24 10:19:57;;;;;;;6.47;5.80;;;9.10;99.90;;;;;;4973526;28;20214;-71
2021/11/24 10:22:26;;;;;;;6.50;5.83;;;9.00;99.90;;;;;;4973330;28;20239;-70
2021/11/24 10:25:02;;;;;;;8.67;5.50;;;9.00;99.90;;;;;;4963402;28;20333;-72
2021/11/24 10:27:38;;;;;;;8.70;5.70;;;9.10;99.90;;;;;;4973458;28;20212;-71
2021/11/24 10:30:07;;;;;;;7.60;5.33;;;9.20;99.90;;;;;;4966246;28;20209;-71
2021/11/24 10:32:34;;;;;;;7.40;4.73;;;9.30;99.90;;;;;;4972961;28;20202;-70
2021/11/24 10:35:01;;;;;;;7.17;6.33;;;9.30;99.90;;;;;;4973676;28;20286;-70
2021/11/24 10:37:30;;;;;;;7.40;5.50;;;9.30;99.90;;;;;;4973481;28;20229;-71
2021/11/24 10:39:58;;;;;;;8.90;6.40;;;9.30;99.90;;;;;;4973766;28;20218;-71
2021/11/24 10:42:29;;;;;;;9.80;6.50;;;9.50;99.90;;;;;;4973212;28;20260;-72
2021/11/24 10:44:58;;;;;;;9.53;5.60;;;9.40;99.90;;;;;;4973668;28;20209;-72
2021/11/24 10:47:27;;;;;;;6.63;5.67;;;9.30;1.00;;;;;;4969358;28;20213;-73
2021/11/24 10:49:56;;;;;;;11.43;6.30;;;9.40;1.00;;;;;;4972874;28;20289;-72
2021/11/24 10:52:25;;;;;;;11.33;6.27;;;9.60;1.00;;;;;;4971968;28;20681;-71
2021/11/24 10:55:05;;;;;;;7.30;5.83;;;9.70;1.00;;;;;;4973511;28;20206;-71
2021/11/24 10:57:33;;;;;;;9.30;6.73;;;9.90;1.00;;;;;;4972957;28;20319;-73
2021/11/24 11:00:04;;;;;;;8.23;7.00;;;9.80;1.00;;;;;;4973240;28;20256;-70
2021/11/24 11:02:34;;;;;;;9.80;7.00;;;9.90;1.00;;;;;;4972670;28;20213;-72
2021/11/24 11:05:13;;;;;;;9.87;7.57;;;10.00;1.00;;;;;;4973258;28;20232;-71
2021/11/24 11:07:43;;;;;;;7.37;6.10;;;10.00;1.00;;;;;;4972939;28;20209;-73
2021/11/24 11:10:15;;;;;;;11.57;6.93;;;10.10;99.90;;;;;;4968381;28;20286;-73
2021/11/24 11:12:44;;;;;;;10.40;7.07;;;10.10;1.00;;;;;;4972557;28;20280;-71
2021/11/24 11:15:27;;;;;;;10.73;7.27;;;10.10;99.90;;;;;;4971088;28;20237;-72
2021/11/24 11:18:15;;;;;;;10.83;7.50;;;10.10;99.90;;;;;;4971465;28;20233;-71
2021/11/24 11:20:49;;;;;;;11.30;7.43;;;10.20;99.90;;;;;;4967637;28;20212;-72
2021/11/24 11:23:19;;;;;;;14.83;7.87;;;10.30;99.90;;;;;;4973141;28;20210;-73
2021/11/24 11:25:49;;;;;;;12.63;7.67;;;10.50;99.90;;;;;;4971486;28;20213;-71
2021/11/24 11:28:18;;;;;;;11.53;8.03;;;10.60;99.90;;;;;;4972844;28;20210;-73
2021/11/24 11:30:47;;;;;;;39.50;35.33;;;10.40;99.90;;;;;;4965615;28;20209;-73
2021/11/24 11:33:15;;;;;;;7.57;6.07;;;10.40;99.90;;;;;;4972802;28;20276;-71
2021/11/24 11:35:44;;;;;;;6.40;5.67;;;10.40;99.90;;;;;;4971846;28;20274;-74
2021/11/24 11:38:12;;;;;;;5.97;5.37;;;10.30;99.90;;;;;;4972644;28;20233;-74
2021/11/24 11:40:42;;;;;;;6.77;5.53;;;10.10;99.90;;;;;;4972258;28;20264;-72
2021/11/24 11:43:12;;;;;;;6.27;5.10;;;10.20;99.90;;;;;;4972494;28;20209;-72
2021/11/24 11:45:40;;;;;;;5.30;4.80;;;10.20;99.90;;;;;;4972221;28;20271;-72
2021/11/24 11:48:09;;;;;;;7.33;5.17;;;10.10;99.90;;;;;;4972367;28;20280;-72
2021/11/24 11:50:54;;;;;;;7.07;5.53;;;10.00;99.90;;;;;;4971528;28;20280;-73
2021/11/24 11:53:25;;;;;;;6.90;5.40;;;9.90;99.90;;;;;;4971747;28;20642;-72
2021/11/24 11:56:15;;;;;;;8.20;5.63;;;9.90;99.90;;;;;;4973985;28;20236;-72
2021/11/24 11:59:01;;;;;;;7.80;5.97;;;10.00;99.90;;;;;;4966883;28;20689;-72
2021/11/24 12:01:32;;;;;;;5.70;5.07;;;10.00;99.90;;;;;;4970471;28;20575;-72
2021/11/24 12:04:03;;;;;;;8.07;5.90;;;9.90;99.90;;;;;;4971749;28;20747;-72
2021/11/24 12:06:33;;;;;;;6.97;5.83;;;9.70;99.90;;;;;;4971246;28;20217;-72
2021/11/24 12:09:20;;;;;;;7.63;5.60;;;9.70;99.90;;;;;;4970513;28;20263;-72
2021/11/24 12:12:06;;;;;;;6.57;5.97;;;9.60;99.90;;;;;;4970626;28;20201;-72
2021/11/24 12:14:49;;;;;;;53.47;29.27;;;9.50;1.00;;;;;;4959594;28;20256;-72
2021/11/24 12:17:47;;;;;;;91.40;45.80;;;9.50;1.00;;;;;;4971885;28;20287;-72
2021/11/24 12:20:40;;;;;;;39.83;25.00;;;9.50;1.00;;;;;;4962024;28;20624;-69
2021/11/24 12:23:17;;;;;;;56.57;29.77;;;9.40;1.00;;;;;;4971145;28;20220;-71
2021/11/24 12:25:46;;;;;;;63.70;33.90;;;9.40;1.00;;;;;;4970213;28;20211;-71
2021/11/24 12:28:16;;;;;;;41.60;25.50;;;9.40;1.00;;;;;;4969101;28;20300;-70
2021/11/24 12:31:06;;;;;;;43.83;28.30;;;9.50;1.00;;;;;;4965540;28;20202;-71
2021/11/24 12:33:41;;;;;;;46.07;29.93;;;9.60;1.00;;;;;;4966012;28;20297;-70
2021/11/24 12:36:12;;;;;;;49.87;32.10;;;9.60;99.90;;;;;;4969526;28;20212;-71
2021/11/24 12:38:43;;;;;;;40.10;27.77;;;9.60;1.00;;;;;;4970578;28;20231;-72
2021/11/24 12:41:12;;;;;;;25.67;22.00;;;9.60;1.00;;;;;;4971483;28;20281;-70
2021/11/24 12:43:42;;;;;;;22.40;16.97;;;9.60;1.00;;;;;;4967277;28;20220;-71
2021/11/24 12:46:15;;;;;;;30.43;21.13;;;9.70;1.00;;;;;;4970687;28;20284;-71
2021/11/24 12:48:45;;;;;;;18.10;13.00;;;9.70;1.00;;;;;;4969693;28;20217;-70
2021/11/24 12:51:18;;;;;;;21.20;17.20;;;9.80;1.00;;;;;;4970100;28;20284;-71
2021/11/24 12:53:49;;;;;;;14.80;11.27;;;9.70;99.90;;;;;;4980101;28;20213;-71
2021/11/24 12:56:17;;;;;;;14.23;11.67;;;9.70;99.90;;;;;;4971733;28;20217;-70
2021/11/24 12:58:45;;;;;;;19.03;14.13;;;9.60;1.00;;;;;;4969822;28;20283;-71
2021/11/24 13:01:19;;;;;;;14.93;11.20;;;9.60;1.00;;;;;;4971060;28;20206;-70
2021/11/24 13:03:48;;;;;;;17.87;12.23;;;9.70;1.00;;;;;;4971249;28;20197;-70
2021/11/24 13:06:15;;;;;;;15.40;11.77;;;9.60;1.00;;;;;;4971113;28;20210;-69
2021/11/24 13:08:43;;;;;;;15.73;12.07;;;9.60;1.00;;;;;;4970759;28;20205;-71
2021/11/24 13:11:12;;;;;;;16.63;9.03;;;9.60;1.00;;;;;;4970043;28;20205;-70
2021/11/24 13:13:40;;;;;;;11.40;6.47;;;9.60;1.00;;;;;;4970457;28;20280;-71
2021/11/24 13:16:20;;;;;;;7.20;6.17;;;9.60;1.00;;;;;;4973044;28;20243;-71
2021/11/24 13:18:51;;;;;;;14.97;7.70;;;9.70;1.00;;;;;;4975511;28;20237;-69
2021/11/24 13:21:19;;;;;;;23.63;16.77;;;9.70;1.00;;;;;;4974746;28;20264;-70
2021/11/24 13:23:46;;;;;;;39.37;28.50;;;9.70;1.00;;;;;;4975596;28;20206;-70
2021/11/24 13:26:14;;;;;;;19.90;14.73;;;9.70;1.00;;;;;;4974685;28;20512;-70
2021/11/24 13:28:41;;;;;;;20.87;15.90;;;9.70;1.00;;;;;;4973917;28;20201;-71
2021/11/24 13:31:08;;;;;;;13.57;10.83;;;9.90;1.00;;;;;;4974532;28;20732;-70
2021/11/24 13:33:39;;;;;;;12.87;8.17;;;9.90;1.00;;;;;;4974834;28;20284;-70